createdAt,value
2019-02-06T00:07:56.902Z,87.44
2019-02-06T00:32:11.475Z,87.30
2019-02-06T00:48:36.339Z,87.22
2019-02-06T00:52:36.265Z,87.22
2019-02-06T01:10:33.844Z,87.14
2019-02-06T01:35:06.827Z,87.00
2019-02-06T01:37:47.426Z,86.98
2019-02-06T01:44:46.099Z,86.93
2019-02-06T01:46:47.880Z,86.91
2019-02-06T01:50:27.027Z,86.90
2019-02-06T01:59:47.355Z,86.88
2019-02-06T02:15:48.006Z,86.84
2019-02-06T02:18:12.377Z,86.81
2019-02-06T03:11:54.417Z,86.42
2019-02-06T03:43:30.818Z,86.12
2019-02-06T04:22:48.651Z,85.75
2019-02-06T04:26:19.470Z,85.75
2019-02-06T04:46:13.289Z,85.64
2019-02-06T04:49:16.568Z,85.64
2019-02-06T04:52:54.870Z,85.62
2019-02-06T04:56:14.833Z,85.64
2019-02-06T05:03:29.798Z,85.59
2019-02-06T05:19:46.241Z,85.43
2019-02-06T05:23:01.199Z,85.43
2019-02-06T05:29:13.257Z,85.41
2019-02-06T05:32:06.727Z,85.41
2019-02-06T05:41:02.999Z,85.33
2019-02-06T05:50:42.226Z,85.30
2019-02-06T05:53:08.813Z,85.31
2019-02-06T05:57:20.231Z,85.31
2019-02-06T06:08:50.203Z,85.29
2019-02-06T06:11:35.141Z,85.28
2019-02-06T06:14:12.096Z,85.25
2019-02-06T06:17:03.423Z,85.30
2019-02-06T06:19:56.727Z,85.32
2019-02-06T06:22:47.172Z,85.30
2019-02-06T06:25:31.231Z,85.25
2019-02-06T06:28:07.425Z,85.26
2019-02-06T06:30:48.083Z,85.26
2019-02-06T06:33:27.385Z,85.24
2019-02-06T06:36:01.594Z,85.22
2019-02-06T06:39:01.492Z,85.23
2019-02-06T06:44:41.256Z,85.21
2019-02-06T06:47:20.682Z,85.20
2019-02-06T06:50:10.287Z,85.19
2019-02-06T06:52:43.184Z,85.21
2019-02-06T06:55:20.423Z,85.22
2019-02-06T06:58:00.253Z,85.23
2019-02-06T07:00:36.730Z,85.23
2019-02-06T07:03:14.656Z,85.22
2019-02-06T07:06:05.478Z,85.21
2019-02-06T07:08:37.207Z,85.21
2019-02-06T07:11:12.613Z,85.19
2019-02-06T07:13:53.515Z,85.20
2019-02-06T07:16:38.365Z,85.18
2019-02-06T07:19:18.535Z,85.20
2019-02-06T07:21:59.566Z,85.16
2019-02-06T07:24:36.708Z,85.17
2019-02-06T07:27:11.158Z,85.16
2019-02-06T07:29:44.329Z,85.15
2019-02-06T07:32:20.065Z,85.16
2019-02-06T07:34:56.107Z,85.16
2019-02-06T07:37:31.617Z,85.15
2019-02-06T07:40:07.490Z,85.13
2019-02-06T07:42:40.556Z,85.16
2019-02-06T07:45:12.276Z,85.16
2019-02-06T07:47:46.002Z,85.18
2019-02-06T07:50:29.550Z,85.18
2019-02-06T07:53:07.924Z,85.19
2019-02-06T07:55:41.650Z,85.20
2019-02-06T07:58:16.290Z,85.23
2019-02-06T08:00:51.037Z,85.26
2019-02-06T08:03:29.552Z,85.27
2019-02-06T08:06:05.766Z,85.28
2019-02-06T08:08:43.881Z,85.30
2019-02-06T08:11:16.250Z,85.34
2019-02-06T08:13:48.092Z,85.34
2019-02-06T08:16:27.166Z,85.35
2019-02-06T08:19:01.805Z,85.38
2019-02-06T08:21:38.585Z,85.41
2019-02-06T08:24:13.719Z,85.41
2019-02-06T08:26:52.456Z,85.43
2019-02-06T08:29:27.023Z,85.46
2019-02-06T08:32:05.417Z,85.45
2019-02-06T08:34:41.444Z,85.47
2019-02-06T08:37:14.960Z,85.48
2019-02-06T08:39:47.215Z,85.52
2019-02-06T08:42:31.953Z,85.53
2019-02-06T08:45:02.438Z,85.57
2019-02-06T08:47:36.454Z,85.64
2019-02-06T08:50:11.895Z,85.72
2019-02-06T08:52:53.403Z,85.79
2019-02-06T08:55:25.008Z,85.85
2019-02-06T08:58:05.271Z,85.87
2019-02-06T09:00:49.917Z,85.95
2019-02-06T09:03:22.943Z,86.01
2019-02-06T09:09:12.785Z,86.07
2019-02-06T09:12:13.287Z,86.10
2019-02-06T09:14:59.107Z,86.16
2019-02-06T09:21:53.618Z,86.26
2019-02-06T09:24:45.838Z,86.29
2019-02-06T09:27:14.739Z,86.34
2019-02-06T09:29:48.761Z,86.37
2019-02-06T09:32:31.209Z,86.42
2019-02-06T09:35:12.951Z,86.46
2019-02-06T09:37:52.137Z,86.51
2019-02-06T09:40:27.310Z,86.54
2019-02-06T09:42:58.630Z,86.58
2019-02-06T09:45:36.499Z,86.61
2019-02-06T09:48:26.136Z,86.62
2019-02-06T09:51:00.296Z,86.63
2019-02-06T09:53:34.631Z,86.69
2019-02-06T09:56:08.535Z,86.71
2019-02-06T09:58:52.331Z,86.77
2019-02-06T10:01:59.468Z,86.77
2019-02-06T10:04:41.133Z,86.81
2019-02-06T10:07:46.686Z,86.85
2019-02-06T10:10:40.454Z,86.92
2019-02-06T10:13:24.438Z,86.97
2019-02-06T10:16:00.440Z,87.01
2019-02-06T10:18:47.852Z,87.17
2019-02-06T10:21:30.695Z,87.28
2019-02-06T10:24:22.047Z,87.42
2019-02-06T10:26:58.620Z,87.71
2019-02-06T10:29:29.327Z,87.85
2019-02-06T10:32:02.082Z,87.84
2019-02-06T10:34:34.255Z,87.93
2019-02-06T10:37:12.598Z,87.99
2019-02-06T10:39:58.709Z,87.97
2019-02-06T10:42:34.315Z,88.21
2019-02-06T10:45:06.411Z,88.27
2019-02-06T10:47:39.867Z,88.28
2019-02-06T10:50:15.661Z,88.31
2019-02-06T10:52:48.325Z,88.25
2019-02-06T10:55:25.414Z,88.40
2019-02-06T10:57:57.802Z,88.39
2019-02-06T11:00:37.387Z,88.48
2019-02-06T11:03:10.281Z,88.57
2019-02-06T11:05:45.674Z,88.58
2019-02-06T11:08:18.369Z,88.59
2019-02-06T11:10:52.389Z,88.83
2019-02-06T11:13:24.068Z,88.65
2019-02-06T11:15:57.933Z,88.77
2019-02-06T11:18:32.098Z,89.10
2019-02-06T11:21:12.762Z,89.25
2019-02-06T11:23:53.426Z,89.18
2019-02-06T11:26:23.964Z,89.19
2019-02-06T11:28:56.146Z,89.29
2019-02-06T11:31:31.274Z,89.40
2019-02-06T11:34:05.919Z,89.12
2019-02-06T11:36:41.942Z,89.20
2019-02-06T11:39:23.274Z,89.07
2019-02-06T11:42:01.815Z,89.05
2019-02-06T11:44:31.511Z,88.93
2019-02-06T11:47:09.245Z,88.91
2019-02-06T11:49:47.893Z,88.90
2019-02-06T11:52:24.645Z,88.77
2019-02-06T11:55:14.820Z,88.83
2019-02-06T11:58:12.442Z,88.79
2019-02-06T12:01:19.238Z,88.85
2019-02-06T12:04:35.844Z,88.73
2019-02-06T12:07:50.632Z,88.67
2019-02-06T12:10:59.708Z,88.53
2019-02-06T12:14:03.482Z,88.48
2019-02-06T12:17:19.118Z,88.42
2019-02-06T12:20:19.765Z,88.53
2019-02-06T12:23:16.437Z,88.49
2019-02-06T12:27:06.132Z,88.42
2019-02-06T12:46:05.325Z,87.92
2019-02-06T12:58:57.321Z,87.61
2019-02-06T13:05:04.554Z,87.52
2019-02-06T13:11:30.334Z,87.44
2019-02-06T13:14:17.948Z,87.35
2019-02-06T13:17:06.372Z,87.34
2019-02-06T13:20:14.343Z,87.29
2019-02-06T13:26:37.402Z,87.22
2019-02-06T13:29:53.263Z,87.16
2019-02-06T13:33:00.475Z,87.10
2019-02-06T13:35:41.101Z,87.06
2019-02-06T13:39:03.646Z,87.00
2019-02-06T13:41:50.254Z,86.97
2019-02-06T13:44:41.452Z,86.89
2019-02-06T13:47:38.189Z,86.85
2019-02-06T13:50:23.735Z,86.85
2019-02-06T13:53:13.777Z,86.79
2019-02-06T13:56:13.266Z,86.76
2019-02-06T14:02:16.111Z,86.65
2019-02-06T14:05:08.117Z,86.61
2019-02-06T14:11:15.913Z,86.53
2019-02-06T14:14:51.527Z,86.48
2019-02-06T14:21:50.199Z,86.38
2019-02-06T14:24:22.367Z,86.33
2019-02-06T14:27:20.838Z,86.27
2019-02-06T14:30:53.787Z,86.20
2019-02-06T14:34:25.676Z,86.17
2019-02-06T14:42:15.458Z,86.02
2019-02-06T15:21:02.426Z,85.48
2019-02-06T15:24:57.432Z,85.42
2019-02-06T15:28:45.417Z,85.38
2019-02-06T15:44:38.242Z,85.32
2019-02-06T15:52:22.239Z,85.18
2019-02-06T15:59:16.466Z,85.04
2019-02-06T16:03:37.599Z,84.98
2019-02-06T16:10:32.476Z,84.93
2019-02-06T16:13:56.258Z,84.94
2019-02-06T17:07:48.696Z,85.08
2019-02-06T17:13:44.081Z,85.14
2019-02-06T17:43:32.518Z,85.17
2019-02-06T18:03:43.437Z,85.16
2019-02-06T18:06:17.868Z,85.13
2019-02-06T18:09:59.836Z,85.13
2019-02-06T18:19:43.230Z,85.10
2019-02-06T18:22:34.351Z,85.08
2019-02-06T18:25:41.079Z,85.08
2019-02-06T18:43:20.871Z,85.10
2019-02-06T18:46:33.861Z,85.08
2019-02-06T18:53:27.339Z,85.10
2019-02-06T19:03:40.779Z,85.08
2019-02-06T19:10:00.338Z,85.08
2019-02-06T19:13:07.880Z,85.04
2019-02-06T19:16:25.648Z,85.05
2019-02-06T19:28:36.812Z,85.05
2019-02-06T19:31:36.030Z,85.04
2019-02-06T19:39:50.304Z,85.05
2019-02-06T19:49:37.892Z,85.06
2019-02-06T19:52:19.258Z,85.04
2019-02-06T19:55:15.102Z,85.05
2019-02-06T19:57:54.787Z,85.06
2019-02-06T20:00:44.158Z,85.06
2019-02-06T20:03:34.099Z,85.03
2019-02-06T20:05:57.970Z,85.05
2019-02-06T20:08:52.629Z,85.05
2019-02-06T20:11:46.901Z,85.04
2019-02-06T20:14:29.874Z,85.04
2019-02-06T20:17:38.907Z,85.06
2019-02-06T20:20:15.801Z,85.04
2019-02-06T20:23:29.426Z,85.02
2019-02-06T20:26:31.592Z,85.06
2019-02-06T20:29:28.520Z,85.05
2019-02-06T20:32:39.911Z,85.03
2019-02-06T20:35:19.055Z,85.03
2019-02-06T20:41:11.088Z,85.02
2019-02-06T20:44:09.792Z,85.02
2019-02-06T20:47:00.484Z,85.04
2019-02-06T20:49:35.388Z,85.03
2019-02-06T20:52:07.277Z,85.03
2019-02-06T20:54:40.904Z,85.04
2019-02-06T20:57:30.597Z,85.02
2019-02-06T21:00:10.045Z,85.04
2019-02-06T21:02:44.801Z,85.03
2019-02-06T21:05:22.036Z,85.03
2019-02-06T21:07:58.276Z,85.03
2019-02-06T21:10:32.531Z,85.04
2019-02-06T21:13:15.646Z,85.02
2019-02-06T21:15:43.451Z,85.03
2019-02-06T21:18:16.865Z,85.03
2019-02-06T21:20:59.078Z,85.04
2019-02-06T21:23:33.330Z,85.02
2019-02-06T21:26:10.994Z,85.01
2019-02-06T21:29:19.991Z,85.03
2019-02-06T21:32:03.977Z,85.02
2019-02-06T21:35:03.542Z,85.02
2019-02-06T21:37:30.893Z,85.02
2019-02-06T21:40:16.256Z,85.02
2019-02-06T21:43:10.017Z,85.00
2019-02-06T21:45:48.380Z,85.01
2019-02-06T21:48:55.520Z,85.03
2019-02-06T21:51:42.232Z,85.02
2019-02-06T21:54:20.796Z,85.02
2019-02-06T21:57:07.503Z,85.01
2019-02-06T21:59:54.555Z,85.04
2019-02-06T22:02:30.732Z,85.03
2019-02-06T22:05:14.256Z,85.03
2019-02-06T22:07:48.314Z,85.04
2019-02-06T22:10:27.171Z,85.03
2019-02-06T22:13:05.294Z,85.04
2019-02-06T22:15:43.099Z,85.02
2019-02-06T22:18:15.852Z,85.02
2019-02-06T22:20:52.408Z,85.05
2019-02-06T22:23:27.407Z,85.03
2019-02-06T22:29:48.935Z,85.03
2019-02-06T22:32:02.890Z,85.04
2019-02-06T22:34:43.327Z,85.06
2019-02-06T22:37:47.980Z,85.06
2019-02-06T22:40:50.831Z,85.04
2019-02-06T22:44:06.058Z,85.04
2019-02-06T22:47:04.736Z,85.04
2019-02-06T22:50:44.934Z,85.03
2019-02-06T22:53:32.328Z,85.06
2019-02-06T22:56:23.682Z,85.05
2019-02-06T22:59:41.214Z,85.06
2019-02-06T23:02:37.951Z,85.07
2019-02-06T23:05:24.177Z,85.05
2019-02-06T23:08:19.232Z,85.04
2019-02-06T23:11:20.545Z,85.03
2019-02-06T23:14:37.145Z,85.05
2019-02-06T23:17:01.957Z,85.06
2019-02-06T23:19:38.374Z,85.05
2019-02-06T23:28:24.425Z,85.06
2019-02-06T23:31:18.723Z,85.06
2019-02-06T23:34:00.212Z,85.07
2019-02-06T23:36:52.362Z,85.07
2019-02-06T23:40:01.154Z,85.07
2019-02-06T23:42:57.866Z,85.08
2019-02-06T23:45:54.631Z,85.08
2019-02-06T23:48:45.628Z,85.08
2019-02-06T23:55:26.983Z,85.08
